Time;durP1;ratioP1;P1;durP2;ratioP2;P2;SDS_P1;SDS_P2;PMS_P1;PMS_P2;Temp;Humidity;BMP_temperature;BMP_pressure;BME280_temperature;BME280_humidity;BME280_pressure;Samples;Min_cycle;Max_cycle;Signal;HPM_P1;HPM_P2
2021/03/27 00:02:04;;;;;;;1.05;1.05;;;;;;;4.60;76.92;101284.45;1780119;80;21147;-44
2021/03/27 00:04:51;;;;;;;0.62;0.28;;;;;;;4.61;77.00;101284.77;1785263;80;21187;-43
2021/03/27 00:07:24;;;;;;;0.40;0.40;;;;;;;4.62;77.12;101279.65;1785339;80;21574;-43
2021/03/27 00:10:19;;;;;;;4.00;1.05;;;;;;;4.62;77.23;101285.88;1727447;81;21172;-44
2021/03/27 00:12:55;;;;;;;0.57;0.57;;;;;;;4.63;77.32;101278.09;1754885;80;21143;-43
2021/03/27 00:15:36;;;;;;;3.60;1.00;;;;;;;4.63;77.46;101276.73;1770310;78;21637;-46
2021/03/27 00:18:16;;;;;;;0.35;0.35;;;;;;;4.63;77.54;101282.67;1777888;80;21155;-46
2021/03/27 00:21:14;;;;;;;1.45;1.02;;;;;;;4.62;77.59;101284.53;1774383;78;21112;-47
2021/03/27 00:23:56;;;;;;;1.12;1.12;;;;;;;4.63;77.65;101281.33;1756924;78;21157;-47
2021/03/27 00:26:37;;;;;;;1.12;0.60;;;;;;;4.66;77.84;101276.81;1819900;76;23291;-46
2021/03/27 00:29:17;;;;;;;;;;;;;;;4.60;77.95;101285.30;1771549;79;21406;-46
2021/03/27 00:31:49;;;;;;;3.25;0.98;;;;;;;4.60;78.11;101282.59;1755141;81;20278;-46
2021/03/27 00:34:30;;;;;;;1.60;1.50;;;;;;;4.63;78.30;101279.44;1863467;76;22708;-46
2021/03/27 00:37:02;;;;;;;0.53;0.53;;;;;;;4.58;78.44;101284.69;1801287;78;21667;-46
2021/03/27 00:39:41;;;;;;;1.80;0.77;;;;;;;4.58;78.58;101289.27;1825181;78;21150;-46
2021/03/27 00:42:19;;;;;;;1.72;1.12;;;;;;;4.57;78.69;101281.66;1824848;78;21095;-43
2021/03/27 00:44:53;;;;;;;1.82;1.07;;;;;;;4.57;78.77;101280.30;1824864;77;21095;-46
2021/03/27 00:47:26;;;;;;;0.95;0.95;;;;;;;4.58;78.89;101274.39;1797426;78;21112;-43
2021/03/27 00:50:08;;;;;;;4.65;1.80;;;;;;;4.56;78.97;101277.30;1824718;77;21095;-44
2021/03/27 00:52:39;;;;;;;0.47;0.47;;;;;;;4.56;79.11;101278.66;1823442;78;21106;-43
2021/03/27 00:55:12;;;;;;;0.65;0.57;;;;;;;4.55;79.19;101281.07;1794725;78;21141;-46
2021/03/27 00:57:56;;;;;;;1.10;1.00;;;;;;;4.55;79.27;101279.72;1771656;80;21135;-46
2021/03/27 01:00:30;;;;;;;1.05;1.00;;;;;;;4.54;79.38;101282.09;1778188;80;21135;-45
2021/03/27 01:03:25;;;;;;;0.85;0.25;;;;;;;4.54;79.52;101280.75;1789948;80;21442;-43
2021/03/27 01:06:16;;;;;;;0.20;0.20;;;;;;;4.54;79.62;101276.69;1787312;80;21122;-42
2021/03/27 01:08:48;;;;;;;0.42;0.42;;;;;;;4.53;79.72;101277.75;1775473;80;21167;-43
2021/03/27 01:11:50;;;;;;;3.47;3.00;;;;;;;4.57;79.78;101273.53;1844996;76;27783;-43
2021/03/27 01:14:27;;;;;;;1.57;1.47;;;;;;;4.56;79.79;101277.83;1826169;77;21161;-45
2021/03/27 01:16:58;;;;;;;1.60;1.50;;;;;;;4.56;79.80;101281.36;1849454;77;21113;-43
2021/03/27 01:19:41;;;;;;;0.85;0.70;;;;;;;4.57;79.81;101278.13;1796239;77;21264;-46
2021/03/27 01:22:12;;;;;;;1.37;1.27;;;;;;;4.56;79.92;101275.95;1770078;78;21141;-46
2021/03/27 01:24:40;;;;;;;1.45;1.45;;;;;;;4.56;80.02;101283.25;1769488;80;21197;-46
2021/03/27 01:27:24;;;;;;;1.60;1.50;;;;;;;4.54;80.08;101278.04;1769453;79;21116;-47
2021/03/27 01:30:02;;;;;;;0.55;0.55;;;;;;;4.54;80.14;101280.75;1758904;79;21138;-46
2021/03/27 01:32:58;;;;;;;0.68;0.68;;;;;;;4.53;80.18;101279.10;1795623;79;21118;-46
2021/03/27 01:35:39;;;;;;;1.55;0.68;;;;;;;4.54;80.24;101283.45;1791630;79;21533;-46
2021/03/27 01:38:18;;;;;;;1.07;0.68;;;;;;;4.52;80.26;101279.63;1732419;82;21166;-46
2021/03/27 01:41:23;;;;;;;0.20;0.20;;;;;;;4.52;80.27;101284.19;1752961;78;21106;-47
2021/03/27 01:44:24;;;;;;;1.25;1.22;;;;;;;4.51;80.32;101277.13;1756456;80;21029;-46
2021/03/27 01:47:38;;;;;;;0.47;0.47;;;;;;;4.52;80.32;101286.90;1733946;81;21147;-43
2021/03/27 01:50:25;;;;;;;0.20;0.20;;;;;;;4.51;80.32;101282.55;1756120;81;21581;-43
2021/03/27 01:53:15;;;;;;;0.42;0.42;;;;;;;4.50;80.36;101276.81;1753755;81;21162;-46
2021/03/27 01:56:06;;;;;;;1.30;1.05;;;;;;;4.50;80.38;101288.98;1764444;79;21106;-46
2021/03/27 01:58:45;;;;;;;5.00;0.95;;;;;;;4.50;80.43;101287.63;1764529;79;21166;-46
2021/03/27 02:01:28;;;;;;;0.55;0.55;;;;;;;4.48;80.42;101285.70;1733307;81;21154;-43
2021/03/27 02:04:17;;;;;;;1.35;1.35;;;;;;;4.47;80.47;101286.73;1731986;81;21162;-43
2021/03/27 02:07:05;;;;;;;1.30;0.82;;;;;;;4.47;80.49;101289.44;1741446;81;21450;-46
2021/03/27 02:10:03;;;;;;;1.10;1.10;;;;;;;4.48;80.50;101289.75;1737933;81;21601;-46
2021/03/27 02:13:10;;;;;;;1.15;1.00;;;;;;;4.47;80.53;101286.73;1743862;81;21175;-43
2021/03/27 02:16:23;;;;;;;0.62;0.62;;;;;;;4.48;80.57;101284.34;1782008;78;21485;-43
2021/03/27 02:19:08;;;;;;;1.02;0.98;;;;;;;4.48;80.57;101292.47;1755735;79;21136;-46
2021/03/27 02:22:07;;;;;;;0.80;0.80;;;;;;;4.47;80.57;101292.14;1730481;81;21418;-43
2021/03/27 02:24:49;;;;;;;0.72;0.72;;;;;;;4.45;80.59;101284.75;1729556;81;21170;-44
2021/03/27 02:27:39;;;;;;;0.13;0.13;;;;;;;4.44;80.60;101289.34;1729394;82;22077;-43
2021/03/27 02:30:27;;;;;;;5.08;3.60;;;;;;;4.47;80.66;101289.44;1862050;76;28233;-46
2021/03/27 02:33:40;;;;;;;0.23;0.23;;;;;;;4.44;80.67;101289.34;1820650;77;21118;-47
2021/03/27 02:36:36;;;;;;;0.78;0.78;;;;;;;4.47;80.64;101290.25;1790333;78;21177;-44
2021/03/27 02:39:23;;;;;;;0.95;0.95;;;;;;;4.48;80.60;101293.81;1820126;78;21160;-46
2021/03/27 02:42:07;;;;;;;0.45;0.40;;;;;;;4.48;80.59;101295.17;1793596;78;21531;-43
2021/03/27 02:44:53;;;;;;;3.87;0.98;;;;;;;4.47;80.64;101294.84;1822402;78;21409;-46
2021/03/27 02:47:35;;;;;;;0.30;0.30;;;;;;;4.47;80.66;101297.55;1792778;78;21540;-46
2021/03/27 02:50:41;;;;;;;2.00;1.37;;;;;;;4.47;80.64;101297.55;1822450;78;21685;-46
2021/03/27 02:53:20;;;;;;;1.00;0.95;;;;;;;4.48;80.64;101292.47;1792589;78;21807;-44
2021/03/27 02:56:17;;;;;;;0.55;0.45;;;;;;;4.47;80.71;101297.55;1816334;78;21169;-44
2021/03/27 02:59:05;;;;;;;0.50;0.50;;;;;;;4.45;80.72;101303.20;1821956;78;21564;-43
2021/03/27 03:02:02;;;;;;;1.65;0.70;;;;;;;4.45;80.73;101301.84;1807290;78;21106;-47
2021/03/27 03:04:40;;;;;;;1.32;0.98;;;;;;;4.44;80.74;101300.17;1717868;78;21142;-43
2021/03/27 03:07:32;;;;;;;0.42;0.42;;;;;;;4.44;80.78;101307.47;1798990;78;21185;-45
2021/03/27 03:10:24;;;;;;;0.42;0.42;;;;;;;4.41;80.82;101299.27;1811818;78;21529;-47
2021/03/27 03:13:28;;;;;;;6.12;1.60;;;;;;;4.39;80.92;101295.11;1789951;80;21129;-43
2021/03/27 03:16:08;;;;;;;2.62;1.50;;;;;;;4.37;81.05;101303.97;1799959;78;21007;-44
2021/03/27 03:18:52;;;;;;;1.62;1.57;;;;;;;4.36;81.15;101311.80;1790431;80;21580;-46
2021/03/27 03:21:47;;;;;;;1.32;1.25;;;;;;;4.35;81.19;101312.30;1791920;78;21137;-42
2021/03/27 03:24:31;;;;;;;0.20;0.20;;;;;;;4.35;81.20;101316.88;1822650;78;21086;-44
2021/03/27 03:27:44;;;;;;;5.58;2.27;;;;;;;4.33;81.25;101318.47;1819324;78;21178;-46
2021/03/27 03:30:24;;;;;;;1.12;1.12;;;;;;;4.32;81.26;101310.02;1817756;78;21101;-46
2021/03/27 03:33:23;;;;;;;6.22;1.15;;;;;;;4.29;81.36;101316.70;1790398;78;21118;-46
2021/03/27 03:36:07;;;;;;;0.90;0.30;;;;;;;4.29;81.46;101328.05;1752018;78;21136;-46
2021/03/27 03:38:53;;;;;;;1.17;0.98;;;;;;;4.27;81.49;101321.50;1790393;78;21412;-44
2021/03/27 03:41:41;;;;;;;3.72;1.30;;;;;;;4.27;81.55;101319.31;1763915;78;21619;-43
2021/03/27 03:44:26;;;;;;;0.98;0.78;;;;;;;4.26;81.63;101324.44;1820109;78;21144;-46
2021/03/27 03:47:44;;;;;;;1.37;1.30;;;;;;;4.25;81.69;101327.67;1806315;78;21185;-44
2021/03/27 03:50:46;;;;;;;0.93;0.35;;;;;;;4.26;81.73;101323.91;1809052;78;21154;-43
2021/03/27 03:53:40;;;;;;;0.60;0.60;;;;;;;4.25;81.82;101329.03;1765978;80;21129;-45
2021/03/27 03:56:19;;;;;;;0.30;0.30;;;;;;;4.25;81.85;101329.52;1789585;80;20948;-43
2021/03/27 03:59:26;;;;;;;0.60;0.60;;;;;;;4.25;81.93;101333.08;1796069;78;21173;-46
2021/03/27 04:02:10;;;;;;;2.90;1.77;;;;;;;4.25;82.00;101341.70;1803581;78;21125;-43
2021/03/27 04:04:52;;;;;;;1.50;1.40;;;;;;;4.25;82.01;101339.84;1800760;78;21168;-43
2021/03/27 04:07:30;;;;;;;0.62;0.47;;;;;;;4.25;82.06;101333.58;1733630;81;21138;-46
2021/03/27 04:10:03;;;;;;;1.30;1.27;;;;;;;4.25;82.10;101335.78;1725194;83;21137;-45
2021/03/27 04:12:34;;;;;;;0.75;0.75;;;;;;;4.26;82.19;101337.97;1705380;82;21181;-46
2021/03/27 04:15:24;;;;;;;2.12;1.80;;;;;;;4.27;82.24;101337.73;1705119;82;21541;-46
2021/03/27 04:18:20;;;;;;;0.53;0.53;;;;;;;4.29;82.26;101338.34;1734857;81;21141;-46
2021/03/27 04:21:13;;;;;;;0.15;0.15;;;;;;;4.33;82.25;101341.97;1735718;81;20956;-46
2021/03/27 04:23:56;;;;;;;1.10;0.42;;;;;;;4.35;82.23;101343.94;1710593;82;21271;-46
2021/03/27 04:26:57;;;;;;;2.47;0.80;;;;;;;4.35;82.23;101338.00;1733889;82;21414;-46
2021/03/27 04:29:49;;;;;;;0.53;0.53;;;;;;;4.37;82.23;101345.91;1731499;81;21122;-46
2021/03/27 04:32:59;;;;;;;5.60;0.93;;;;;;;4.41;82.13;101351.21;1844476;76;22742;-46
2021/03/27 04:35:50;;;;;;;0.65;0.30;;;;;;;4.36;82.12;101354.56;1778331;80;21181;-43
2021/03/27 04:38:44;;;;;;;0.33;0.33;;;;;;;4.34;82.13;101350.41;1755026;80;21129;-46
2021/03/27 04:41:34;;;;;;;0.60;0.60;;;;;;;4.30;82.13;101353.56;1765189;80;21165;-47
2021/03/27 04:44:34;;;;;;;1.75;1.70;;;;;;;4.24;82.11;101363.88;1785887;80;21113;-46
2021/03/27 04:47:20;;;;;;;1.37;0.47;;;;;;;4.18;82.13;101365.24;1758482;80;21078;-43
2021/03/27 04:50:09;;;;;;;0.45;0.45;;;;;;;4.13;82.27;101369.97;1780377;80;21401;-46
2021/03/27 04:53:00;;;;;;;1.30;0.75;;;;;;;4.09;82.32;101367.38;1760247;80;21440;-46
2021/03/27 04:55:51;;;;;;;1.05;0.45;;;;;;;4.04;82.46;101379.36;1756723;80;21145;-43
2021/03/27 04:58:52;;;;;;;2.00;1.90;;;;;;;3.98;82.57;101370.73;1754635;81;21169;-46
2021/03/27 05:01:34;;;;;;;1.65;0.40;;;;;;;3.94;82.74;101372.22;1735265;81;21122;-43
2021/03/27 05:04:10;;;;;;;1.32;0.88;;;;;;;3.90;82.90;101372.33;1754836;80;21094;-43
2021/03/27 05:06:45;;;;;;;0.57;0.53;;;;;;;3.88;83.11;101377.44;1754664;81;21165;-43
2021/03/27 05:09:33;;;;;;;0.55;0.55;;;;;;;3.93;83.48;101382.71;1779000;80;21137;-46
2021/03/27 05:12:14;;;;;;;0.35;0.35;;;;;;;4.00;83.77;101375.41;1782165;80;21121;-46
2021/03/27 05:15:15;;;;;;;0.78;0.78;;;;;;;4.12;83.87;101382.34;1785896;80;21552;-46
2021/03/27 05:17:49;;;;;;;1.82;1.70;;;;;;;4.25;83.93;101383.14;1772479;80;21130;-46
2021/03/27 05:20:31;;;;;;;2.22;1.02;;;;;;;4.43;83.91;101387.83;1785338;80;21122;-46
2021/03/27 05:23:08;;;;;;;0.95;0.82;;;;;;;4.59;83.74;101385.14;1725599;81;21149;-43
2021/03/27 05:26:04;;;;;;;1.27;1.17;;;;;;;4.74;83.43;101387.02;1773749;80;21445;-47
2021/03/27 05:29:02;;;;;;;1.07;1.07;;;;;;;4.91;83.03;101388.69;1782018;78;21416;-46
2021/03/27 05:31:35;;;;;;;0.40;0.40;;;;;;;5.09;82.52;101381.69;1766279;80;20967;-46
2021/03/27 05:34:31;;;;;;;0.30;0.30;;;;;;;5.26;82.04;101379.27;1765011;80;21153;-45
2021/03/27 05:37:42;;;;;;;1.40;0.70;;;;;;;5.41;81.61;101385.70;1756832;81;21583;-46
2021/03/27 05:40:48;;;;;;;1.65;0.85;;;;;;;5.59;81.16;101387.94;1721929;82;21139;-44
2021/03/27 05:43:52;;;;;;;0.90;0.90;;;;;;;5.78;80.39;101395.55;1712831;81;21660;-43
2021/03/27 05:46:56;;;;;;;1.07;0.50;;;;;;;5.96;80.00;101398.86;1706169;82;21186;-42
2021/03/27 05:50:01;;;;;;;0.85;0.60;;;;;;;6.15;78.98;101396.13;1629541;82;21715;-43
2021/03/27 05:53:24;;;;;;;2.70;0.62;;;;;;;6.32;78.17;101397.70;1705435;82;21191;-46
2021/03/27 05:56:37;;;;;;;1.77;1.62;;;;;;;6.50;77.50;101396.84;1706411;82;21139;-43
2021/03/27 05:59:24;;;;;;;1.65;1.50;;;;;;;6.67;77.02;101398.69;1706903;82;21542;-42
2021/03/27 06:01:57;;;;;;;0.90;0.90;;;;;;;6.87;76.46;101398.44;1707468;82;20946;-43
2021/03/27 06:05:03;;;;;;;0.60;0.60;;;;;;;7.02;75.73;101398.00;1708769;82;21142;-45
2021/03/27 06:07:54;;;;;;;0.93;0.88;;;;;;;7.15;75.16;101391.52;1680116;84;21232;-43
2021/03/27 06:10:53;;;;;;;1.37;1.37;;;;;;;7.30;74.31;101391.89;1734071;82;21522;-45
2021/03/27 06:14:09;;;;;;;0.50;0.50;;;;;;;7.48;74.35;101395.58;1711400;82;20976;-45
2021/03/27 06:16:48;;;;;;;3.72;1.45;;;;;;;7.66;73.28;101406.33;1719947;82;21466;-46
2021/03/27 06:20:04;;;;;;;1.15;1.05;;;;;;;7.84;72.97;101397.74;1728151;81;21162;-46
2021/03/27 06:23:08;;;;;;;0.75;0.65;;;;;;;8.00;72.55;101399.75;1732673;82;21154;-43
2021/03/27 06:25:47;;;;;;;0.85;0.55;;;;;;;8.22;71.63;101400.48;1705765;83;21466;-46
2021/03/27 06:29:02;;;;;;;1.45;1.35;;;;;;;8.44;70.88;101406.97;1866150;76;22653;-46
2021/03/27 06:31:50;;;;;;;4.20;1.45;;;;;;;8.55;70.15;101404.72;1848117;77;21129;-46
2021/03/27 06:34:56;;;;;;;4.55;1.82;;;;;;;8.70;69.61;101408.81;1823146;77;21145;-43
2021/03/27 06:37:29;;;;;;;1.32;1.22;;;;;;;8.81;69.06;101418.31;1832504;77;21110;-46
2021/03/27 06:40:25;;;;;;;1.85;1.15;;;;;;;8.96;68.54;101409.59;1818462;78;21533;-46
2021/03/27 06:43:30;;;;;;;3.42;3.02;;;;;;;9.12;67.90;101415.30;1840864;77;21106;-46
2021/03/27 06:46:12;;;;;;;2.40;1.37;;;;;;;9.26;67.47;101422.10;1846201;77;21162;-46
2021/03/27 06:49:10;;;;;;;1.47;0.95;;;;;;;9.42;66.86;101412.26;1820700;77;21110;-46
2021/03/27 06:52:20;;;;;;;2.12;1.72;;;;;;;9.58;66.48;101413.34;1838985;75;21151;-44
2021/03/27 06:55:25;;;;;;;2.72;2.37;;;;;;;9.71;65.79;101411.62;1852219;77;21094;-43
2021/03/27 06:58:16;;;;;;;0.57;0.57;;;;;;;9.89;65.69;101414.09;1845181;77;21107;-46
2021/03/27 07:01:39;;;;;;;2.33;1.55;;;;;;;10.17;65.99;101418.29;1854857;76;22637;-46
2021/03/27 07:04:34;;;;;;;3.02;0.72;;;;;;;10.27;65.13;101413.77;1858769;76;21110;-43
2021/03/27 07:07:42;;;;;;;2.37;1.42;;;;;;;10.46;64.13;101417.05;1838281;77;21178;-43
2021/03/27 07:11:00;;;;;;;1.90;1.77;;;;;;;10.61;63.49;101417.77;1762699;80;21167;-43
2021/03/27 07:14:09;;;;;;;2.75;0.70;;;;;;;10.77;62.61;101413.28;1785980;78;21125;-46
2021/03/27 07:16:50;;;;;;;1.82;1.65;;;;;;;10.86;61.67;101419.95;1772363;80;21556;-43
2021/03/27 07:19:47;;;;;;;1.02;0.98;;;;;;;10.95;61.60;101421.66;1694583;80;21112;-46
2021/03/27 07:22:21;;;;;;;0.98;0.98;;;;;;;11.10;60.92;101416.37;1732306;80;21150;-46
2021/03/27 07:25:35;;;;;;;3.12;1.37;;;;;;;11.23;60.54;101412.92;1766661;79;21147;-43
2021/03/27 07:28:40;;;;;;;3.65;1.95;;;;;;;11.38;60.38;101413.86;1781930;78;21232;-43
2021/03/27 07:31:46;;;;;;;1.15;1.10;;;;;;;11.53;59.45;101419.19;1800233;78;21166;-44
2021/03/27 07:34:39;;;;;;;2.70;1.40;;;;;;;11.62;58.68;101422.55;1771334;80;21132;-43
2021/03/27 07:37:39;;;;;;;1.40;1.07;;;;;;;11.72;58.78;101418.20;1731073;81;21154;-43
2021/03/27 07:40:15;;;;;;;1.40;1.30;;;;;;;11.84;58.28;101421.58;1777332;80;21143;-46
2021/03/27 07:42:57;;;;;;;1.15;0.75;;;;;;;12.02;58.83;101420.37;1787172;80;21411;-46
2021/03/27 07:45:59;;;;;;;2.97;1.73;;;;;;;12.18;58.12;101413.86;1753373;80;21138;-46
2021/03/27 07:48:51;;;;;;;1.80;0.53;;;;;;;12.37;57.65;101421.08;1786829;79;20996;-43
2021/03/27 07:51:53;;;;;;;1.65;1.42;;;;;;;12.54;56.48;101420.88;1768119;80;21174;-46
2021/03/27 07:55:06;;;;;;;1.32;1.10;;;;;;;12.71;55.71;101431.62;1799595;78;21132;-44
2021/03/27 07:58:07;;;;;;;0.62;0.62;;;;;;;12.80;56.25;101431.36;1769961;80;20971;-46
2021/03/27 08:01:00;;;;;;;1.57;1.47;;;;;;;12.97;55.72;101429.75;1797693;78;21189;-43
2021/03/27 08:03:40;;;;;;;;;;;;;;;13.10;54.53;101429.77;1800110;78;21641;-46
2021/03/27 08:06:31;;;;;;;0.60;0.47;;;;;;;13.21;55.04;101434.19;1818427;78;21105;-47
2021/03/27 08:09:36;;;;;;;1.02;0.70;;;;;;;13.24;52.76;101429.52;1797466;78;21131;-47
2021/03/27 08:12:28;;;;;;;1.25;1.10;;;;;;;13.26;51.50;101430.07;1843311;76;22621;-44
2021/03/27 08:15:26;;;;;;;1.95;1.77;;;;;;;13.12;52.65;101433.89;1785597;78;21142;-45
2021/03/27 08:18:25;;;;;;;1.77;0.85;;;;;;;13.18;52.77;101430.63;1753477;78;21153;-45
2021/03/27 08:21:20;;;;;;;2.25;2.12;;;;;;;13.33;51.93;101429.28;1796733;79;21106;-44
2021/03/27 08:24:05;;;;;;;2.30;1.35;;;;;;;13.42;51.91;101424.61;1792684;79;21563;-44
2021/03/27 08:26:44;;;;;;;2.52;0.95;;;;;;;13.43;50.82;101429.84;1797643;79;21170;-43
2021/03/27 08:29:43;;;;;;;0.62;0.62;;;;;;;13.48;51.03;101423.53;1790304;78;21133;-47
2021/03/27 08:32:49;;;;;;;1.12;1.10;;;;;;;13.58;51.90;101426.27;1770618;79;21153;-43
2021/03/27 08:35:55;;;;;;;0.80;0.80;;;;;;;13.78;50.36;101424.04;1799539;79;21126;-44
2021/03/27 08:38:45;;;;;;;1.47;1.37;;;;;;;13.91;49.99;101422.64;1761319;80;21125;-47
2021/03/27 08:41:41;;;;;;;4.08;1.55;;;;;;;14.04;49.73;101422.60;1718855;81;21174;-47
2021/03/27 08:44:20;;;;;;;1.95;0.62;;;;;;;14.02;47.96;101422.90;1716739;81;21126;-45
2021/03/27 08:46:59;;;;;;;1.35;1.05;;;;;;;13.84;49.02;101429.78;1721315;82;21043;-43
2021/03/27 08:50:12;;;;;;;0.93;0.72;;;;;;;13.72;46.60;101424.61;1720079;82;21153;-43
2021/03/27 08:53:02;;;;;;;3.08;2.00;;;;;;;13.53;47.63;101419.41;1659289;86;21131;-44
2021/03/27 08:56:14;;;;;;;0.70;0.70;;;;;;;13.39;48.61;101420.49;1772771;78;21447;-44
2021/03/27 08:59:04;;;;;;;1.40;1.30;;;;;;;13.49;47.88;101419.67;1783703;78;21103;-45
2021/03/27 09:01:46;;;;;;;1.55;0.82;;;;;;;13.61;48.53;101420.21;1729469;82;21159;-47
2021/03/27 09:04:38;;;;;;;2.17;0.50;;;;;;;13.46;48.95;101417.48;1786795;78;21161;-47
2021/03/27 09:07:29;;;;;;;1.45;0.78;;;;;;;13.41;48.76;101418.30;1743987;81;21158;-46
2021/03/27 09:10:35;;;;;;;1.95;1.40;;;;;;;13.32;49.48;101419.38;1708761;83;21510;-46
2021/03/27 09:13:25;;;;;;;1.22;1.22;;;;;;;13.40;50.29;101421.31;1692438;82;21543;-46
2021/03/27 09:16:34;;;;;;;2.17;1.10;;;;;;;13.40;46.94;101418.05;1706617;82;21146;-46
2021/03/27 09:19:31;;;;;;;2.08;1.30;;;;;;;13.25;49.88;101418.83;1734730;81;21157;-47
2021/03/27 09:22:30;;;;;;;2.52;0.57;;;;;;;13.10;49.69;101417.42;1748315;80;21535;-44
2021/03/27 09:25:15;;;;;;;1.15;1.10;;;;;;;13.11;50.12;101413.59;1742712;80;21544;-48
2021/03/27 09:28:14;;;;;;;0.55;0.20;;;;;;;13.16;50.84;101419.09;1694981;84;21110;-47
2021/03/27 09:31:09;;;;;;;1.30;0.75;;;;;;;13.31;49.77;101408.70;1708659;83;21300;-45
2021/03/27 09:33:41;;;;;;;1.85;0.90;;;;;;;13.53;49.17;101408.42;1722504;81;21529;-44
2021/03/27 09:36:30;;;;;;;0.65;0.65;;;;;;;13.60;49.06;101413.09;1724135;83;21146;-43
2021/03/27 09:39:23;;;;;;;0.62;0.62;;;;;;;13.54;49.58;101411.42;1727041;80;21174;-45
2021/03/27 09:42:05;;;;;;;1.22;0.88;;;;;;;13.47;49.45;101409.51;1682416;83;21131;-47
2021/03/27 09:45:22;;;;;;;4.15;1.67;;;;;;;13.43;48.21;101408.43;1721835;81;21174;-47
2021/03/27 09:48:07;;;;;;;2.15;1.20;;;;;;;13.49;48.57;101404.56;1706780;81;21162;-43
2021/03/27 09:51:15;;;;;;;1.12;0.98;;;;;;;13.59;49.04;101404.55;1732636;82;21644;-47
2021/03/27 09:54:05;;;;;;;1.87;1.40;;;;;;;13.67;47.73;101410.03;1723591;81;21154;-47
2021/03/27 09:56:40;;;;;;;1.92;1.07;;;;;;;13.73;46.18;101408.39;1729515;82;21011;-43
2021/03/27 09:59:36;;;;;;;2.67;0.98;;;;;;;13.76;46.40;101398.21;1703126;82;21596;-47
2021/03/27 10:02:29;;;;;;;1.52;0.70;;;;;;;13.88;46.50;101399.84;1732650;82;21150;-47
2021/03/27 10:05:35;;;;;;;1.20;1.10;;;;;;;13.99;45.69;101404.20;1732879;81;21458;-47
2021/03/27 10:08:35;;;;;;;3.47;0.98;;;;;;;14.00;46.59;101396.25;1703047;82;21154;-47
2021/03/27 10:11:07;;;;;;;0.85;0.85;;;;;;;13.81;45.56;101394.63;1665994;85;21187;-47
2021/03/27 10:14:00;;;;;;;1.72;1.55;;;;;;;13.83;46.73;101399.86;1668964;83;21568;-47
2021/03/27 10:16:52;;;;;;;2.30;0.55;;;;;;;13.98;45.51;101400.63;1732422;82;21142;-47
2021/03/27 10:19:29;;;;;;;1.70;1.60;;;;;;;14.22;44.32;101401.92;1716380;82;21544;-46
2021/03/27 10:22:20;;;;;;;1.12;1.10;;;;;;;14.37;43.30;101396.39;1738092;81;21168;-47
2021/03/27 10:25:07;;;;;;;0.72;0.72;;;;;;;14.48;43.11;101396.59;1651463;81;21207;-47
2021/03/27 10:27:53;;;;;;;1.95;0.82;;;;;;;14.59;43.00;101394.11;1729645;81;21164;-47
2021/03/27 10:30:42;;;;;;;2.12;1.22;;;;;;;14.70;42.91;101398.17;1739516;81;21131;-47
2021/03/27 10:33:26;;;;;;;1.72;1.62;;;;;;;14.78;43.72;101398.38;1749310;80;21201;-47
2021/03/27 10:36:15;;;;;;;10.28;5.67;;;;;;;14.82;42.40;101397.27;1745952;81;21172;-47
2021/03/27 10:39:25;;;;;;;4.00;3.05;;;;;;;14.68;41.77;101398.44;1724442;81;21114;-47
2021/03/27 10:42:12;;;;;;;2.00;1.77;;;;;;;14.55;42.84;101403.20;1695276;83;21159;-47
2021/03/27 10:45:16;;;;;;;0.78;0.78;;;;;;;14.51;42.27;101402.08;1721512;81;21142;-47
2021/03/27 10:48:07;;;;;;;1.70;1.60;;;;;;;14.49;41.42;101398.78;1720791;82;21174;-47
2021/03/27 10:50:58;;;;;;;0.72;0.72;;;;;;;14.54;39.75;101399.64;1720894;82;21154;-47
2021/03/27 10:54:12;;;;;;;1.15;1.12;;;;;;;14.60;40.27;101397.11;1721396;81;21340;-46
2021/03/27 10:57:28;;;;;;;2.42;1.35;;;;;;;14.53;39.67;101406.22;1720338;83;21179;-47
2021/03/27 11:00:51;;;;;;;1.07;0.35;;;;;;;14.26;40.78;101407.14;1639897;86;21246;-47
2021/03/27 11:03:46;;;;;;;8.08;2.25;;;;;;;14.15;41.33;101405.81;1652127;85;21226;-46
2021/03/27 11:06:53;;;;;;;4.87;2.60;;;;;;;14.03;41.54;101405.30;1779767;80;21643;-47
2021/03/27 11:10:00;;;;;;;4.90;3.70;;;;;;;13.83;41.64;101408.11;1775047;80;21126;-47
2021/03/27 11:12:53;;;;;;;1.75;1.42;;;;;;;13.64;40.80;101411.97;1748985;81;21173;-47
2021/03/27 11:15:38;;;;;;;7.58;1.37;;;;;;;13.67;40.09;101401.80;1725430;81;27129;-47
2021/03/27 11:18:40;;;;;;;0.33;0.33;;;;;;;13.83;39.48;101398.48;1720898;81;21548;-47
2021/03/27 11:21:24;;;;;;;4.70;2.12;;;;;;;14.11;38.93;101397.84;1723814;83;21130;-48
2021/03/27 11:24:32;;;;;;;0.82;0.82;;;;;;;14.23;39.96;101404.97;1734525;82;21529;-47
2021/03/27 11:27:38;;;;;;;1.42;1.35;;;;;;;14.25;40.21;101403.58;1750223;81;21117;-46
2021/03/27 11:30:43;;;;;;;1.90;1.05;;;;;;;14.19;41.23;101411.03;1750740;81;21180;-46
2021/03/27 11:33:36;;;;;;;1.57;1.47;;;;;;;13.91;39.84;101408.91;1742877;81;21224;-46
2021/03/27 11:36:21;;;;;;;3.47;2.27;;;;;;;13.58;40.95;101420.77;1717111;83;21141;-47
2021/03/27 11:39:06;;;;;;;1.15;1.02;;;;;;;13.40;41.61;101413.08;1716768;82;21119;-46
2021/03/27 11:41:42;;;;;;;4.03;1.52;;;;;;;13.36;41.34;101414.74;1734282;82;21169;-48
2021/03/27 11:44:33;;;;;;;1.25;1.15;;;;;;;13.36;41.46;101410.63;1727805;81;21687;-46
2021/03/27 11:47:24;;;;;;;1.35;0.90;;;;;;;13.34;41.18;101414.45;1709486;83;21131;-47
2021/03/27 11:50:11;;;;;;;2.83;2.55;;;;;;;13.35;41.51;101413.89;1734855;80;21117;-47
2021/03/27 11:52:56;;;;;;;1.90;0.82;;;;;;;13.46;41.52;101409.25;1752910;81;21189;-47
2021/03/27 11:55:30;;;;;;;1.90;1.25;;;;;;;13.67;42.03;101405.36;1755012;81;21719;-47
2021/03/27 11:58:14;;;;;;;1.27;1.17;;;;;;;13.94;42.24;101394.59;1727811;80;21150;-47
2021/03/27 12:01:04;;;;;;;2.05;1.42;;;;;;;14.28;41.16;101389.27;1704023;84;21166;-47
2021/03/27 12:03:49;;;;;;;0.62;0.62;;;;;;;14.65;40.18;101388.58;1722554;82;21492;-47
2021/03/27 12:06:42;;;;;;;2.50;1.12;;;;;;;14.92;39.31;101383.44;1751485;81;21779;-47
2021/03/27 12:09:45;;;;;;;4.30;2.37;;;;;;;15.02;40.74;101379.80;1750781;81;21141;-46
2021/03/27 12:12:52;;;;;;;0.82;0.55;;;;;;;15.11;38.77;101385.50;1750337;81;21162;-48
2021/03/27 12:15:51;;;;;;;0.70;0.70;;;;;;;15.09;37.07;101388.55;1734109;82;21125;-48
2021/03/27 12:18:47;;;;;;;5.42;3.77;;;;;;;14.90;36.64;101393.91;1700152;83;21370;-47
2021/03/27 12:21:39;;;;;;;2.52;1.77;;;;;;;14.72;37.35;101390.46;1719926;83;21152;-46
2021/03/27 12:24:48;;;;;;;1.87;1.65;;;;;;;14.54;38.44;101387.79;1730775;82;21169;-47
2021/03/27 12:27:30;;;;;;;2.25;1.77;;;;;;;14.33;40.23;101388.42;1732306;82;21143;-48
2021/03/27 12:30:11;;;;;;;1.90;1.80;;;;;;;14.04;40.00;101393.75;1751951;81;21158;-46
2021/03/27 12:32:59;;;;;;;1.40;1.30;;;;;;;13.92;40.01;101391.30;1749873;81;21151;-47
2021/03/27 12:35:40;;;;;;;2.77;2.58;;;;;;;13.98;40.29;101388.83;1705109;81;21549;-47
2021/03/27 12:38:31;;;;;;;3.25;1.22;;;;;;;14.12;39.81;101387.14;1733575;81;21280;-48
2021/03/27 12:41:04;;;;;;;4.20;2.10;;;;;;;14.28;40.12;101385.14;1750743;81;21127;-47
2021/03/27 12:43:32;;;;;;;;;;;;;;;14.34;39.87;101387.30;1704502;82;21107;-47
2021/03/27 12:46:21;;;;;;;4.85;4.12;;;;;;;14.30;39.01;101385.69;1737104;81;20248;-46
2021/03/27 12:49:41;;;;;;;14.07;11.40;;;;;;;14.16;41.24;101385.45;1733744;81;21142;-47
2021/03/27 12:52:34;;;;;;;17.45;9.70;;;;;;;14.03;40.66;101389.37;1739007;80;21141;-46
2021/03/27 12:55:45;;;;;;;2.25;2.05;;;;;;;13.80;42.38;101390.26;1734124;82;21138;-46
2021/03/27 12:58:47;;;;;;;4.37;2.92;;;;;;;13.65;41.17;101402.09;1751885;81;21154;-46
2021/03/27 13:01:52;;;;;;;6.58;3.30;;;;;;;13.46;42.52;101399.08;1751966;81;21130;-46
2021/03/27 13:04:45;;;;;;;6.85;5.65;;;;;;;13.33;43.00;101399.09;1750838;81;21499;-46
2021/03/27 13:07:29;;;;;;;7.25;6.50;;;;;;;13.20;44.01;101402.33;1766102;80;21126;-47
2021/03/27 13:10:13;;;;;;;9.55;6.67;;;;;;;13.12;44.65;101409.75;1752627;81;21157;-46
2021/03/27 13:13:02;;;;;;;3.42;2.65;;;;;;;13.04;44.79;101397.39;1736970;81;21503;-47
2021/03/27 13:15:54;;;;;;;5.80;2.47;;;;;;;12.93;44.53;101398.46;1730250;82;21109;-47
2021/03/27 13:18:34;;;;;;;5.42;4.33;;;;;;;12.77;45.44;101402.29;1732522;82;21477;-48
2021/03/27 13:21:25;;;;;;;5.95;4.62;;;;;;;12.69;46.08;101394.05;1729616;82;21157;-47
2021/03/27 13:24:10;;;;;;;0.70;0.70;;;;;;;12.81;46.14;101389.66;1770829;80;21139;-46